createdAt,value
2023-07-25T00:00:00.703Z,25.73
2023-07-25T00:03:03.678Z,25.72
2023-07-25T00:06:06.184Z,26.01
2023-07-25T00:09:09.289Z,26.01
2023-07-25T00:12:11.911Z,26.00
2023-07-25T00:15:14.806Z,25.95
2023-07-25T00:18:17.200Z,25.80
2023-07-25T00:21:19.613Z,25.52
2023-07-25T00:24:22.473Z,25.47
2023-07-25T00:27:24.908Z,25.39
2023-07-25T00:30:27.746Z,25.33
2023-07-25T00:33:30.143Z,25.29
2023-07-25T00:36:32.777Z,25.21
2023-07-25T00:39:35.167Z,25.08
2023-07-25T00:42:37.744Z,24.97
2023-07-25T00:45:40.278Z,24.97
2023-07-25T00:48:45.143Z,25.02
2023-07-25T00:51:47.561Z,25.01
2023-07-25T00:54:52.054Z,25.03
2023-07-25T00:57:55.555Z,25.08
2023-07-25T01:01:08.203Z,25.07
2023-07-25T01:04:10.759Z,25.13
2023-07-25T01:07:17.288Z,25.14
2023-07-25T01:10:19.675Z,25.18
2023-07-25T01:13:23.533Z,25.23
2023-07-25T01:16:31.098Z,25.25
2023-07-25T01:19:35.709Z,25.13
2023-07-25T01:22:39.447Z,24.87
2023-07-25T01:25:47.435Z,24.75
2023-07-25T01:28:51.084Z,24.51
2023-07-25T01:32:02.672Z,24.14
2023-07-25T01:35:05.814Z,23.66
2023-07-25T01:38:08.203Z,23.30
2023-07-25T01:41:10.629Z,23.18
2023-07-25T01:44:12.977Z,23.04
2023-07-25T01:47:15.553Z,22.96
2023-07-25T01:50:18.346Z,22.80
2023-07-25T01:53:20.862Z,22.58
2023-07-25T01:56:23.226Z,22.48
2023-07-25T01:59:28.113Z,22.39
2023-07-25T02:02:30.443Z,22.37
2023-07-25T02:05:33.571Z,22.27
2023-07-25T02:08:36.275Z,22.34
2023-07-25T02:11:38.622Z,22.40
2023-07-25T02:14:41.632Z,22.45
2023-07-25T02:17:44.289Z,22.34
2023-07-25T02:20:48.870Z,22.38
2023-07-25T02:23:52.297Z,22.33
2023-07-25T02:26:54.843Z,22.38
2023-07-25T02:30:00.895Z,22.84
2023-07-25T02:33:03.494Z,22.94
2023-07-25T02:36:07.233Z,22.94
2023-07-25T02:39:10.036Z,22.63
2023-07-25T02:42:12.834Z,22.45
2023-07-25T02:45:15.400Z,22.41
2023-07-25T02:48:19.240Z,22.44
2023-07-25T02:51:22.583Z,22.32
2023-07-25T02:54:25.331Z,22.52
2023-07-25T02:57:27.723Z,22.26
2023-07-25T03:00:30.050Z,22.12
2023-07-25T03:03:32.486Z,21.95
2023-07-25T03:06:35.105Z,21.99
2023-07-25T03:09:38.450Z,21.80
2023-07-25T03:12:41.012Z,21.80
2023-07-25T03:15:43.427Z,21.84
2023-07-25T03:18:46.032Z,21.91
2023-07-25T03:21:54.432Z,22.04
2023-07-25T03:24:56.903Z,22.14
2023-07-25T03:27:59.394Z,22.07
2023-07-25T03:31:01.915Z,21.95
2023-07-25T03:34:04.224Z,21.82
2023-07-25T03:37:06.717Z,21.81
2023-07-25T03:40:12.745Z,21.90
2023-07-25T03:43:15.380Z,21.93
2023-07-25T03:46:17.714Z,22.07
2023-07-25T03:49:22.633Z,22.04
2023-07-25T03:52:25.193Z,21.94
2023-07-25T03:55:27.587Z,21.98
2023-07-25T03:58:30.098Z,22.08
2023-07-25T04:01:32.663Z,22.18
2023-07-25T04:04:35.396Z,22.06
2023-07-25T04:07:38.242Z,22.10
2023-07-25T04:10:40.768Z,22.31
2023-07-25T04:13:43.029Z,22.29
2023-07-25T04:16:45.610Z,22.44
2023-07-25T04:19:48.108Z,22.28
2023-07-25T04:22:50.608Z,22.20
2023-07-25T04:25:53.127Z,22.27
2023-07-25T04:28:55.447Z,22.31
2023-07-25T04:31:58.284Z,22.60
2023-07-25T04:35:00.890Z,22.61
2023-07-25T04:38:03.387Z,22.56
2023-07-25T04:41:05.691Z,22.76
2023-07-25T04:44:08.342Z,22.78
2023-07-25T04:47:10.998Z,22.76
2023-07-25T04:50:14.187Z,22.70
2023-07-25T04:53:17.108Z,22.88
2023-07-25T04:56:22.815Z,23.48
2023-07-25T04:59:27.504Z,24.07
2023-07-25T05:02:29.912Z,24.32
2023-07-25T05:05:32.373Z,24.85
2023-07-25T05:08:34.788Z,25.45
2023-07-25T05:11:37.637Z,25.77
2023-07-25T05:14:40.438Z,25.94
2023-07-25T05:17:44.695Z,26.16
2023-07-25T05:20:48.554Z,26.18
2023-07-25T05:23:50.899Z,26.39
2023-07-25T05:26:53.208Z,26.46
2023-07-25T05:29:55.540Z,26.78
2023-07-25T05:32:57.868Z,27.16
2023-07-25T05:36:01.791Z,27.43
2023-07-25T05:39:04.211Z,27.40
2023-07-25T05:42:06.827Z,27.17
2023-07-25T05:45:09.456Z,26.20
2023-07-25T05:48:11.725Z,26.64
2023-07-25T05:51:14.096Z,26.21
2023-07-25T05:54:17.178Z,27.09
2023-07-25T05:57:19.612Z,28.01
2023-07-25T06:00:22.632Z,28.45
2023-07-25T06:03:24.988Z,28.80
2023-07-25T06:06:27.593Z,29.18
2023-07-25T06:09:30.026Z,29.10
2023-07-25T06:12:32.671Z,29.35
2023-07-25T06:15:38.156Z,29.47
2023-07-25T06:18:40.562Z,29.40
2023-07-25T06:21:42.934Z,28.39
2023-07-25T06:24:45.388Z,27.99
2023-07-25T06:27:48.821Z,28.84
2023-07-25T06:30:51.296Z,28.14
2023-07-25T06:33:53.700Z,27.07
2023-07-25T06:36:57.239Z,26.86
2023-07-25T06:40:01.353Z,27.09
2023-07-25T06:43:03.833Z,27.41
2023-07-25T06:46:06.750Z,27.79
2023-07-25T06:49:09.064Z,29.27
2023-07-25T06:52:11.423Z,29.88
2023-07-25T06:55:13.972Z,28.51
2023-07-25T06:58:16.324Z,29.12
2023-07-25T07:01:18.876Z,29.56
2023-07-25T07:04:21.311Z,29.40
2023-07-25T07:07:23.587Z,30.42
2023-07-25T07:10:25.886Z,30.97
2023-07-25T07:13:28.950Z,30.94
2023-07-25T07:16:31.256Z,31.24
2023-07-25T07:19:34.582Z,30.94
2023-07-25T07:22:36.959Z,30.70
2023-07-25T07:25:39.776Z,31.01
2023-07-25T07:28:42.917Z,30.78
2023-07-25T07:31:45.446Z,30.01
2023-07-25T07:34:47.866Z,29.52
2023-07-25T07:37:50.269Z,29.87
2023-07-25T07:40:52.800Z,30.29
2023-07-25T07:43:55.661Z,29.80
2023-07-25T07:46:57.990Z,29.01
2023-07-25T07:50:03.175Z,29.12
2023-07-25T07:53:10.473Z,29.36
2023-07-25T07:56:13.832Z,28.56
2023-07-25T07:59:16.144Z,27.85
2023-07-25T08:02:19.075Z,27.19
2023-07-25T08:05:21.781Z,27.39
2023-07-25T08:08:24.217Z,27.15
2023-07-25T08:11:26.529Z,26.91
2023-07-25T08:14:29.036Z,26.83
2023-07-25T08:17:31.527Z,26.53
2023-07-25T08:20:33.900Z,26.56
2023-07-25T08:23:36.210Z,26.53
2023-07-25T08:26:38.659Z,26.35
2023-07-25T08:29:42.002Z,26.45
2023-07-25T08:32:44.300Z,26.45
2023-07-25T08:35:47.837Z,26.14
2023-07-25T08:38:50.226Z,25.99
2023-07-25T08:41:53.964Z,25.93
2023-07-25T08:44:56.811Z,25.69
2023-07-25T08:48:04.309Z,25.57
2023-07-25T08:51:19.635Z,25.11
2023-07-25T08:54:33.734Z,25.04
2023-07-25T08:57:38.402Z,24.93
2023-07-25T09:00:41.697Z,24.77
2023-07-25T09:03:45.821Z,24.80
2023-07-25T09:06:48.586Z,24.81
2023-07-25T09:09:50.919Z,24.48
2023-07-25T09:12:53.873Z,24.29
2023-07-25T09:15:56.475Z,24.30
2023-07-25T09:18:59.120Z,24.28
2023-07-25T09:22:01.936Z,24.13
2023-07-25T09:25:09.560Z,23.89
2023-07-25T09:28:11.903Z,23.30
2023-07-25T09:31:14.213Z,22.88
2023-07-25T09:34:20.703Z,22.28
2023-07-25T09:37:23.364Z,21.63
2023-07-25T09:40:26.306Z,21.63
2023-07-25T09:43:29.335Z,21.33
2023-07-25T09:46:31.739Z,21.42
2023-07-25T09:49:34.570Z,20.98
2023-07-25T09:52:41.503Z,20.82
2023-07-25T09:55:45.238Z,20.82
2023-07-25T09:59:05.722Z,20.83
2023-07-25T10:02:10.954Z,21.02
2023-07-25T10:05:14.340Z,21.19
2023-07-25T10:08:17.882Z,21.23
2023-07-25T10:11:22.031Z,21.29
2023-07-25T10:14:24.593Z,21.56
2023-07-25T10:17:27.285Z,21.35
2023-07-25T10:20:29.865Z,21.28
2023-07-25T10:23:35.892Z,21.17
2023-07-25T10:26:55.935Z,21.42
2023-07-25T10:30:02.781Z,21.56
2023-07-25T10:33:07.664Z,21.69
2023-07-25T10:36:24.562Z,21.49
2023-07-25T10:39:27.362Z,21.80
2023-07-25T10:43:06.684Z,22.58
2023-07-25T10:46:14.811Z,23.13
2023-07-25T10:49:17.640Z,22.59
2023-07-25T10:52:43.322Z,22.59
2023-07-25T10:56:07.874Z,23.03
2023-07-25T10:59:13.286Z,22.70
2023-07-25T11:02:34.024Z,22.51
2023-07-25T11:05:36.483Z,22.99
2023-07-25T11:08:43.270Z,23.71
2023-07-25T11:11:47.844Z,24.00
2023-07-25T11:14:50.773Z,23.32
2023-07-25T11:17:53.694Z,22.87
2023-07-25T11:21:06.607Z,23.05
2023-07-25T11:24:10.097Z,23.57
2023-07-25T11:27:13.122Z,24.22
2023-07-25T11:30:16.162Z,24.11
2023-07-25T11:33:19.204Z,23.92
2023-07-25T11:36:22.682Z,24.22
2023-07-25T11:39:25.149Z,24.71
2023-07-25T11:42:28.870Z,24.53
2023-07-25T11:45:31.516Z,24.65
2023-07-25T11:48:34.191Z,24.67
2023-07-25T11:51:38.282Z,24.08
2023-07-25T11:54:40.974Z,24.12
2023-07-25T11:57:43.568Z,24.06
2023-07-25T12:00:52.458Z,23.91
2023-07-25T12:03:54.977Z,24.50
2023-07-25T12:07:00.418Z,24.91
2023-07-25T12:10:02.727Z,24.71
2023-07-25T12:13:09.737Z,25.17
2023-07-25T12:16:37.134Z,24.94
2023-07-25T12:19:39.771Z,24.49
2023-07-25T12:22:42.206Z,24.23
2023-07-25T12:25:44.620Z,24.46
2023-07-25T12:28:46.909Z,24.32
2023-07-25T12:31:49.570Z,24.32
2023-07-25T12:34:52.112Z,24.38
2023-07-25T12:37:54.476Z,24.17
2023-07-25T12:40:56.882Z,24.50
2023-07-25T12:44:00.267Z,24.09
2023-07-25T12:47:05.675Z,23.92
2023-07-25T12:50:09.877Z,24.14
2023-07-25T12:53:12.665Z,24.04
2023-07-25T12:56:14.998Z,23.98
2023-07-25T12:59:17.316Z,23.58
2023-07-25T13:02:19.636Z,23.31
2023-07-25T13:05:21.999Z,23.41
2023-07-25T13:08:24.275Z,23.52
2023-07-25T13:11:26.680Z,23.53
2023-07-25T13:14:29.008Z,23.96
2023-07-25T13:17:31.604Z,24.11
2023-07-25T13:20:34.111Z,23.97
2023-07-25T13:23:36.610Z,24.31
2023-07-25T13:26:39.044Z,24.72
2023-07-25T13:29:41.534Z,24.27
2023-07-25T13:32:43.929Z,24.50
2023-07-25T13:35:46.511Z,24.53
2023-07-25T13:38:48.861Z,25.08
2023-07-25T13:41:51.270Z,25.21
2023-07-25T13:44:53.604Z,25.40
2023-07-25T13:47:56.040Z,25.34
2023-07-25T13:50:58.492Z,25.07
2023-07-25T13:54:00.826Z,24.91
2023-07-25T13:57:03.266Z,25.17
2023-07-25T14:00:06.620Z,25.15
2023-07-25T14:03:11.641Z,25.10
2023-07-25T14:06:14.024Z,25.07
2023-07-25T14:09:16.426Z,25.28
2023-07-25T14:12:18.944Z,25.09
2023-07-25T14:15:21.410Z,25.49
2023-07-25T14:18:24.212Z,25.81
2023-07-25T14:21:26.569Z,25.00
2023-07-25T14:24:29.074Z,25.39
2023-07-25T14:27:31.424Z,25.42
2023-07-25T14:30:35.273Z,25.55
2023-07-25T14:33:37.692Z,25.32
2023-07-25T14:36:40.031Z,25.54
2023-07-25T14:39:42.489Z,25.30
2023-07-25T14:42:45.270Z,25.22
2023-07-25T14:45:47.976Z,25.11
2023-07-25T14:48:50.302Z,25.13
2023-07-25T14:51:52.612Z,25.16
2023-07-25T14:54:54.926Z,24.49
2023-07-25T14:57:57.222Z,24.81
2023-07-25T15:00:59.884Z,24.99
2023-07-25T15:04:02.289Z,24.90
2023-07-25T15:07:05.198Z,25.10
2023-07-25T15:10:08.110Z,25.48
2023-07-25T15:13:12.495Z,25.62
2023-07-25T15:16:15.058Z,25.64
2023-07-25T15:19:17.431Z,25.42
2023-07-25T15:22:20.004Z,25.19
2023-07-25T15:25:22.341Z,24.98
2023-07-25T15:28:24.710Z,24.83
2023-07-25T15:31:27.052Z,24.92
2023-07-25T15:34:29.420Z,25.07
2023-07-25T15:37:31.724Z,24.96
2023-07-25T15:40:37.835Z,25.04
2023-07-25T15:43:40.230Z,24.81
2023-07-25T15:46:42.683Z,24.95
2023-07-25T15:49:45.237Z,24.82
2023-07-25T15:52:47.489Z,24.49
2023-07-25T15:55:49.851Z,24.39
2023-07-25T15:58:52.241Z,24.45
2023-07-25T16:01:54.885Z,24.60
2023-07-25T16:04:57.233Z,24.38
2023-07-25T16:08:03.818Z,24.55
2023-07-25T16:11:06.396Z,24.83
2023-07-25T16:14:08.820Z,24.68
2023-07-25T16:17:11.784Z,24.53
2023-07-25T16:20:14.188Z,24.56
2023-07-25T16:23:16.500Z,24.67
2023-07-25T16:26:19.074Z,24.43
2023-07-25T16:29:21.385Z,24.38
2023-07-25T16:32:24.194Z,24.45
2023-07-25T16:35:26.722Z,24.42
2023-07-25T16:38:29.023Z,24.14
2023-07-25T16:41:31.540Z,24.01
2023-07-25T16:44:34.059Z,24.00
2023-07-25T16:47:36.444Z,23.98
2023-07-25T16:50:38.858Z,23.95
2023-07-25T16:53:41.494Z,23.90
2023-07-25T16:56:44.305Z,23.62
2023-07-25T16:59:48.407Z,23.59
2023-07-25T17:02:51.034Z,23.44
2023-07-25T17:05:53.415Z,23.22
2023-07-25T17:08:57.629Z,23.19
2023-07-25T17:12:02.011Z,23.30
2023-07-25T17:15:06.803Z,23.36
2023-07-25T17:18:09.598Z,23.26
2023-07-25T17:21:13.448Z,23.16
2023-07-25T17:24:18.905Z,23.13
2023-07-25T17:27:21.530Z,23.27
2023-07-25T17:30:24.028Z,23.23
2023-07-25T17:33:26.635Z,23.09
2023-07-25T17:36:29.125Z,23.16
2023-07-25T17:39:34.044Z,23.08
2023-07-25T17:42:37.752Z,22.93
2023-07-25T17:45:41.429Z,22.96
2023-07-25T17:48:44.479Z,22.96
2023-07-25T17:51:46.887Z,22.94
2023-07-25T17:54:50.083Z,22.82
2023-07-25T17:57:52.648Z,22.64
2023-07-25T18:00:55.103Z,22.32
2023-07-25T18:03:57.633Z,22.15
2023-07-25T18:07:00.035Z,22.06
2023-07-25T18:10:02.564Z,21.89
2023-07-25T18:13:05.703Z,21.89
2023-07-25T18:16:08.965Z,21.88
2023-07-25T18:19:11.327Z,21.88
2023-07-25T18:22:13.713Z,21.75
2023-07-25T18:25:16.063Z,21.53
2023-07-25T18:28:21.950Z,21.45
2023-07-25T18:31:24.261Z,21.37
2023-07-25T18:34:26.722Z,21.32
2023-07-25T18:37:29.157Z,21.30
2023-07-25T18:40:31.514Z,21.26
2023-07-25T18:43:33.882Z,21.27
2023-07-25T18:46:37.363Z,21.32
2023-07-25T18:49:39.759Z,21.21
2023-07-25T18:52:42.204Z,21.21
2023-07-25T18:55:44.594Z,21.08
2023-07-25T18:58:46.901Z,21.11
2023-07-25T19:01:49.183Z,21.00
2023-07-25T19:04:52.092Z,20.96
2023-07-25T19:07:54.791Z,20.84
2023-07-25T19:10:57.190Z,20.74
2023-07-25T19:13:59.595Z,20.69
2023-07-25T19:17:02.945Z,20.65
2023-07-25T19:20:06.790Z,20.56
2023-07-25T19:23:23.598Z,20.49
2023-07-25T19:26:27.927Z,20.50
2023-07-25T19:29:30.269Z,20.48
2023-07-25T19:32:32.635Z,20.45
2023-07-25T19:35:35.319Z,20.41
2023-07-25T19:38:37.659Z,20.31
2023-07-25T19:41:40.281Z,20.31
2023-07-25T19:44:42.718Z,20.17
2023-07-25T19:47:45.140Z,20.13
2023-07-25T19:50:48.034Z,20.08
2023-07-25T19:53:52.125Z,20.08
2023-07-25T19:56:54.969Z,20.00
2023-07-25T19:59:57.340Z,20.02
2023-07-25T20:02:59.713Z,20.07
2023-07-25T20:06:03.107Z,20.05
2023-07-25T20:09:05.486Z,20.06
2023-07-25T20:12:09.322Z,20.05
2023-07-25T20:15:12.262Z,20.06
2023-07-25T20:18:16.145Z,19.98
2023-07-25T20:21:18.506Z,19.87
2023-07-25T20:24:20.857Z,19.77
2023-07-25T20:27:24.557Z,19.78
2023-07-25T20:30:26.933Z,19.68
2023-07-25T20:33:29.365Z,19.68
2023-07-25T20:36:32.008Z,19.67
2023-07-25T20:39:34.595Z,19.69
2023-07-25T20:42:36.948Z,19.65
2023-07-25T20:45:39.386Z,19.62
2023-07-25T20:48:41.725Z,19.57
2023-07-25T20:51:44.033Z,19.52
2023-07-25T20:54:46.482Z,19.53
2023-07-25T20:57:49.377Z,19.54
2023-07-25T21:00:52.254Z,19.61
2023-07-25T21:03:54.689Z,19.57
2023-07-25T21:06:57.018Z,19.59
2023-07-25T21:09:59.346Z,19.68
2023-07-25T21:13:01.679Z,19.78
2023-07-25T21:16:04.333Z,19.78
2023-07-25T21:19:06.937Z,19.84
2023-07-25T21:22:09.885Z,19.81
2023-07-25T21:25:12.428Z,19.88
2023-07-25T21:28:14.715Z,19.93
2023-07-25T21:31:17.129Z,20.01
2023-07-25T21:34:19.975Z,20.05
2023-07-25T21:37:22.637Z,20.07
2023-07-25T21:40:25.260Z,20.10
2023-07-25T21:43:27.631Z,20.18
2023-07-25T21:46:30.104Z,20.04
2023-07-25T21:49:32.546Z,20.08
2023-07-25T21:52:34.803Z,20.10
2023-07-25T21:55:37.164Z,20.08
2023-07-25T21:58:39.524Z,20.08
2023-07-25T22:01:41.864Z,20.07
2023-07-25T22:04:44.225Z,20.01
2023-07-25T22:07:47.417Z,20.01
2023-07-25T22:10:49.924Z,20.04
2023-07-25T22:13:52.512Z,19.98
2023-07-25T22:16:55.050Z,19.97
2023-07-25T22:19:57.356Z,19.93
2023-07-25T22:22:59.621Z,19.95
2023-07-25T22:26:03.389Z,19.86
2023-07-25T22:29:05.747Z,19.82
2023-07-25T22:32:08.406Z,19.86
2023-07-25T22:35:10.766Z,19.86
2023-07-25T22:38:13.219Z,19.81
2023-07-25T22:41:16.235Z,19.74
2023-07-25T22:44:18.631Z,19.66
2023-07-25T22:47:21.098Z,19.64
2023-07-25T22:50:23.653Z,19.59
2023-07-25T22:53:26.039Z,19.50
2023-07-25T22:56:28.424Z,19.42
2023-07-25T22:59:30.832Z,19.45
2023-07-25T23:02:33.253Z,19.43
2023-07-25T23:05:35.919Z,19.59
2023-07-25T23:08:38.195Z,19.63
2023-07-25T23:11:40.545Z,19.54
2023-07-25T23:14:43.287Z,19.39
2023-07-25T23:17:45.592Z,19.36
2023-07-25T23:20:47.930Z,19.20
2023-07-25T23:23:50.225Z,19.16
2023-07-25T23:26:52.677Z,19.17
2023-07-25T23:29:55.033Z,19.23
2023-07-25T23:32:57.405Z,19.27
2023-07-25T23:36:00.146Z,19.16
2023-07-25T23:39:02.546Z,19.11
2023-07-25T23:42:05.324Z,19.17
2023-07-25T23:45:08.322Z,19.12
2023-07-25T23:48:10.876Z,19.21
2023-07-25T23:51:13.190Z,19.29
2023-07-25T23:54:15.503Z,19.27
2023-07-25T23:57:17.885Z,19.36
